sensor_id;sensor_type;location;lat;lon;timestamp;P1;durP1;ratioP1;P2;durP2;ratioP2
70320;SDS011;61127;55.826;37.046;2022-08-26T00:01:33;25.05;;;17.15;;
70320;SDS011;61127;55.826;37.046;2022-08-26T00:03:59;29.17;;;17.40;;
70320;SDS011;61127;55.826;37.046;2022-08-26T00:06:25;24.83;;;17.60;;
70320;SDS011;61127;55.826;37.046;2022-08-26T00:08:51;28.08;;;17.75;;
70320;SDS011;61127;55.826;37.046;2022-08-26T00:11:17;23.85;;;18.02;;
70320;SDS011;61127;55.826;37.046;2022-08-26T00:13:43;25.83;;;17.43;;
70320;SDS011;61127;55.826;37.046;2022-08-26T00:16:09;22.97;;;17.57;;
70320;SDS011;61127;55.826;37.046;2022-08-26T00:18:35;26.27;;;17.30;;
70320;SDS011;61127;55.826;37.046;2022-08-26T00:21:02;28.70;;;18.83;;
70320;SDS011;61127;55.826;37.046;2022-08-26T00:23:28;23.63;;;16.73;;
70320;SDS011;61127;55.826;37.046;2022-08-26T00:25:54;28.10;;;17.27;;
70320;SDS011;61127;55.826;37.046;2022-08-26T00:28:20;22.40;;;16.97;;
70320;SDS011;61127;55.826;37.046;2022-08-26T00:30:46;23.67;;;17.17;;
70320;SDS011;61127;55.826;37.046;2022-08-26T00:33:15;21.98;;;16.65;;
70320;SDS011;61127;55.826;37.046;2022-08-26T00:35:42;23.20;;;17.45;;
70320;SDS011;61127;55.826;37.046;2022-08-26T00:38:09;27.80;;;17.83;;
70320;SDS011;61127;55.826;37.046;2022-08-26T00:40:41;23.17;;;17.30;;
70320;SDS011;61127;55.826;37.046;2022-08-26T00:43:07;24.48;;;17.48;;
70320;SDS011;61127;55.826;37.046;2022-08-26T00:45:37;25.45;;;17.38;;
70320;SDS011;61127;55.826;37.046;2022-08-26T00:48:04;21.90;;;17.13;;
70320;SDS011;61127;55.826;37.046;2022-08-26T00:50:35;23.63;;;17.70;;
70320;SDS011;61127;55.826;37.046;2022-08-26T00:53:04;24.58;;;17.40;;
70320;SDS011;61127;55.826;37.046;2022-08-26T00:55:52;28.80;;;17.95;;
70320;SDS011;61127;55.826;37.046;2022-08-26T00:58:20;26.45;;;18.38;;
70320;SDS011;61127;55.826;37.046;2022-08-26T01:00:47;26.23;;;17.73;;
70320;SDS011;61127;55.826;37.046;2022-08-26T01:03:12;26.20;;;18.52;;
70320;SDS011;61127;55.826;37.046;2022-08-26T01:05:39;26.35;;;17.92;;
70320;SDS011;61127;55.826;37.046;2022-08-26T01:08:05;24.95;;;18.05;;
70320;SDS011;61127;55.826;37.046;2022-08-26T01:10:31;24.00;;;17.60;;
70320;SDS011;61127;55.826;37.046;2022-08-26T01:12:59;26.23;;;17.67;;
70320;SDS011;61127;55.826;37.046;2022-08-26T01:15:30;26.20;;;17.52;;
70320;SDS011;61127;55.826;37.046;2022-08-26T01:23:10;25.20;;;18.20;;
70320;SDS011;61127;55.826;37.046;2022-08-26T01:25:42;24.95;;;17.85;;
70320;SDS011;61127;55.826;37.046;2022-08-26T01:28:12;25.75;;;18.63;;
70320;SDS011;61127;55.826;37.046;2022-08-26T01:30:39;26.90;;;18.27;;
70320;SDS011;61127;55.826;37.046;2022-08-26T01:33:05;26.60;;;18.65;;
70320;SDS011;61127;55.826;37.046;2022-08-26T01:35:33;25.97;;;17.60;;
70320;SDS011;61127;55.826;37.046;2022-08-26T01:38:00;26.17;;;17.63;;
70320;SDS011;61127;55.826;37.046;2022-08-26T01:40:28;25.52;;;17.88;;
70320;SDS011;61127;55.826;37.046;2022-08-26T01:42:57;25.38;;;18.33;;
70320;SDS011;61127;55.826;37.046;2022-08-26T01:45:24;24.67;;;17.87;;
70320;SDS011;61127;55.826;37.046;2022-08-26T01:47:51;32.17;;;17.70;;
70320;SDS011;61127;55.826;37.046;2022-08-26T01:50:20;28.05;;;18.35;;
70320;SDS011;61127;55.826;37.046;2022-08-26T01:52:47;23.55;;;18.00;;
70320;SDS011;61127;55.826;37.046;2022-08-26T01:55:13;25.85;;;18.55;;
70320;SDS011;61127;55.826;37.046;2022-08-26T01:57:40;28.27;;;18.57;;
70320;SDS011;61127;55.826;37.046;2022-08-26T02:00:08;24.58;;;17.63;;
70320;SDS011;61127;55.826;37.046;2022-08-26T02:02:39;24.98;;;18.17;;
70320;SDS011;61127;55.826;37.046;2022-08-26T02:05:06;28.45;;;18.63;;
70320;SDS011;61127;55.826;37.046;2022-08-26T02:07:35;24.90;;;17.83;;
70320;SDS011;61127;55.826;37.046;2022-08-26T02:10:02;28.40;;;17.60;;
70320;SDS011;61127;55.826;37.046;2022-08-26T02:12:29;23.65;;;17.23;;
70320;SDS011;61127;55.826;37.046;2022-08-26T02:14:55;27.02;;;18.10;;
70320;SDS011;61127;55.826;37.046;2022-08-26T02:17:25;25.48;;;17.33;;
70320;SDS011;61127;55.826;37.046;2022-08-26T02:19:53;27.60;;;18.92;;
70320;SDS011;61127;55.826;37.046;2022-08-26T02:22:21;23.20;;;17.27;;
70320;SDS011;61127;55.826;37.046;2022-08-26T02:24:51;25.52;;;18.13;;
70320;SDS011;61127;55.826;37.046;2022-08-26T02:27:19;24.20;;;17.75;;
70320;SDS011;61127;55.826;37.046;2022-08-26T02:29:46;27.13;;;17.75;;
70320;SDS011;61127;55.826;37.046;2022-08-26T02:32:13;23.38;;;17.85;;
70320;SDS011;61127;55.826;37.046;2022-08-26T02:34:42;24.93;;;17.20;;
70320;SDS011;61127;55.826;37.046;2022-08-26T02:37:09;28.88;;;17.33;;
70320;SDS011;61127;55.826;37.046;2022-08-26T02:39:35;26.17;;;18.05;;
70320;SDS011;61127;55.826;37.046;2022-08-26T02:42:01;23.58;;;16.67;;
70320;SDS011;61127;55.826;37.046;2022-08-26T02:44:27;26.48;;;17.63;;
70320;SDS011;61127;55.826;37.046;2022-08-26T02:46:54;22.20;;;17.00;;
70320;SDS011;61127;55.826;37.046;2022-08-26T02:49:20;28.55;;;17.35;;
70320;SDS011;61127;55.826;37.046;2022-08-26T02:51:46;23.90;;;17.60;;
70320;SDS011;61127;55.826;37.046;2022-08-26T02:54:13;27.65;;;17.02;;
70320;SDS011;61127;55.826;37.046;2022-08-26T02:56:40;27.17;;;17.10;;
70320;SDS011;61127;55.826;37.046;2022-08-26T02:59:06;27.05;;;17.42;;
70320;SDS011;61127;55.826;37.046;2022-08-26T03:01:32;28.70;;;17.07;;
70320;SDS011;61127;55.826;37.046;2022-08-26T03:03:58;23.67;;;16.67;;
70320;SDS011;61127;55.826;37.046;2022-08-26T03:06:25;24.70;;;16.77;;
70320;SDS011;61127;55.826;37.046;2022-08-26T03:08:51;23.25;;;16.73;;
70320;SDS011;61127;55.826;37.046;2022-08-26T03:11:17;23.13;;;16.80;;
70320;SDS011;61127;55.826;37.046;2022-08-26T03:13:43;23.57;;;16.50;;
70320;SDS011;61127;55.826;37.046;2022-08-26T03:16:09;27.48;;;16.55;;
70320;SDS011;61127;55.826;37.046;2022-08-26T03:18:42;22.80;;;16.60;;
70320;SDS011;61127;55.826;37.046;2022-08-26T03:21:09;25.27;;;16.88;;
70320;SDS011;61127;55.826;37.046;2022-08-26T03:23:36;23.10;;;15.70;;
70320;SDS011;61127;55.826;37.046;2022-08-26T03:26:02;22.25;;;16.27;;
70320;SDS011;61127;55.826;37.046;2022-08-26T03:28:30;24.95;;;15.90;;
70320;SDS011;61127;55.826;37.046;2022-08-26T03:30:55;22.27;;;16.23;;
70320;SDS011;61127;55.826;37.046;2022-08-26T03:33:22;25.50;;;17.08;;
70320;SDS011;61127;55.826;37.046;2022-08-26T03:35:49;29.83;;;18.27;;
70320;SDS011;61127;55.826;37.046;2022-08-26T03:38:15;27.02;;;17.88;;
70320;SDS011;61127;55.826;37.046;2022-08-26T03:40:41;25.05;;;17.40;;
70320;SDS011;61127;55.826;37.046;2022-08-26T03:43:08;25.02;;;17.70;;
70320;SDS011;61127;55.826;37.046;2022-08-26T03:45:34;28.30;;;18.73;;
70320;SDS011;61127;55.826;37.046;2022-08-26T03:48:00;27.83;;;17.73;;
70320;SDS011;61127;55.826;37.046;2022-08-26T03:50:27;26.10;;;17.30;;
70320;SDS011;61127;55.826;37.046;2022-08-26T03:52:53;26.08;;;17.60;;
70320;SDS011;61127;55.826;37.046;2022-08-26T03:55:19;27.00;;;18.17;;
70320;SDS011;61127;55.826;37.046;2022-08-26T03:57:49;28.25;;;17.42;;
70320;SDS011;61127;55.826;37.046;2022-08-26T04:00:15;27.52;;;18.10;;
70320;SDS011;61127;55.826;37.046;2022-08-26T04:02:41;25.40;;;17.98;;
70320;SDS011;61127;55.826;37.046;2022-08-26T04:05:14;25.95;;;18.33;;
70320;SDS011;61127;55.826;37.046;2022-08-26T04:07:41;31.73;;;19.37;;
70320;SDS011;61127;55.826;37.046;2022-08-26T04:10:08;24.23;;;17.85;;
70320;SDS011;61127;55.826;37.046;2022-08-26T04:12:35;22.17;;;17.92;;
70320;SDS011;61127;55.826;37.046;2022-08-26T04:15:03;27.05;;;18.42;;
70320;SDS011;61127;55.826;37.046;2022-08-26T04:17:31;32.75;;;19.85;;
70320;SDS011;61127;55.826;37.046;2022-08-26T04:19:57;29.07;;;17.87;;
70320;SDS011;61127;55.826;37.046;2022-08-26T04:22:23;25.80;;;18.23;;
70320;SDS011;61127;55.826;37.046;2022-08-26T04:24:49;24.77;;;17.77;;
70320;SDS011;61127;55.826;37.046;2022-08-26T04:27:17;25.70;;;18.53;;
70320;SDS011;61127;55.826;37.046;2022-08-26T04:29:42;29.05;;;18.08;;
70320;SDS011;61127;55.826;37.046;2022-08-26T04:32:10;31.13;;;18.30;;
70320;SDS011;61127;55.826;37.046;2022-08-26T04:34:36;27.13;;;18.83;;
70320;SDS011;61127;55.826;37.046;2022-08-26T04:37:10;28.90;;;17.50;;
70320;SDS011;61127;55.826;37.046;2022-08-26T04:39:35;27.10;;;16.77;;
70320;SDS011;61127;55.826;37.046;2022-08-26T04:42:01;32.15;;;18.20;;
70320;SDS011;61127;55.826;37.046;2022-08-26T04:44:28;26.80;;;18.27;;
70320;SDS011;61127;55.826;37.046;2022-08-26T04:46:55;29.23;;;17.73;;
70320;SDS011;61127;55.826;37.046;2022-08-26T04:49:21;30.33;;;17.38;;
70320;SDS011;61127;55.826;37.046;2022-08-26T04:51:47;27.40;;;17.58;;
70320;SDS011;61127;55.826;37.046;2022-08-26T04:54:13;26.43;;;16.63;;
70320;SDS011;61127;55.826;37.046;2022-08-26T04:56:41;27.33;;;17.42;;
70320;SDS011;61127;55.826;37.046;2022-08-26T04:59:08;25.10;;;16.40;;
70320;SDS011;61127;55.826;37.046;2022-08-26T05:01:34;30.52;;;16.60;;
70320;SDS011;61127;55.826;37.046;2022-08-26T05:04:00;32.63;;;16.92;;
70320;SDS011;61127;55.826;37.046;2022-08-26T05:06:27;24.40;;;16.10;;
70320;SDS011;61127;55.826;37.046;2022-08-26T05:08:53;23.40;;;15.57;;
70320;SDS011;61127;55.826;37.046;2022-08-26T05:11:19;21.77;;;15.20;;
70320;SDS011;61127;55.826;37.046;2022-08-26T05:13:45;20.35;;;15.70;;
70320;SDS011;61127;55.826;37.046;2022-08-26T05:16:12;25.00;;;16.00;;
70320;SDS011;61127;55.826;37.046;2022-08-26T05:18:38;22.33;;;14.77;;
70320;SDS011;61127;55.826;37.046;2022-08-26T05:21:05;27.60;;;15.45;;
70320;SDS011;61127;55.826;37.046;2022-08-26T05:23:33;20.20;;;14.60;;
70320;SDS011;61127;55.826;37.046;2022-08-26T05:25:59;24.58;;;14.02;;
70320;SDS011;61127;55.826;37.046;2022-08-26T05:28:28;25.25;;;14.35;;
70320;SDS011;61127;55.826;37.046;2022-08-26T05:30:53;21.65;;;14.32;;
70320;SDS011;61127;55.826;37.046;2022-08-26T05:33:20;20.73;;;13.75;;
70320;SDS011;61127;55.826;37.046;2022-08-26T05:35:46;23.57;;;14.23;;
70320;SDS011;61127;55.826;37.046;2022-08-26T05:38:16;20.45;;;13.45;;
70320;SDS011;61127;55.826;37.046;2022-08-26T05:40:44;20.52;;;13.68;;
70320;SDS011;61127;55.826;37.046;2022-08-26T05:43:11;22.23;;;13.75;;
70320;SDS011;61127;55.826;37.046;2022-08-26T05:45:41;24.47;;;15.37;;
70320;SDS011;61127;55.826;37.046;2022-08-26T05:48:10;21.33;;;14.30;;
70320;SDS011;61127;55.826;37.046;2022-08-26T05:50:40;26.05;;;14.23;;
70320;SDS011;61127;55.826;37.046;2022-08-26T05:53:06;27.00;;;14.93;;
70320;SDS011;61127;55.826;37.046;2022-08-26T05:55:32;22.20;;;13.98;;
70320;SDS011;61127;55.826;37.046;2022-08-26T05:57:59;22.23;;;14.50;;
70320;SDS011;61127;55.826;37.046;2022-08-26T06:00:25;21.67;;;13.88;;
70320;SDS011;61127;55.826;37.046;2022-08-26T06:02:51;19.90;;;12.95;;
70320;SDS011;61127;55.826;37.046;2022-08-26T06:05:17;21.83;;;13.55;;
70320;SDS011;61127;55.826;37.046;2022-08-26T06:07:47;20.52;;;13.68;;
70320;SDS011;61127;55.826;37.046;2022-08-26T06:10:32;22.87;;;13.37;;
70320;SDS011;61127;55.826;37.046;2022-08-26T06:12:58;25.77;;;12.95;;
70320;SDS011;61127;55.826;37.046;2022-08-26T06:15:24;22.10;;;13.13;;
70320;SDS011;61127;55.826;37.046;2022-08-26T06:17:51;21.00;;;12.63;;
70320;SDS011;61127;55.826;37.046;2022-08-26T06:20:18;17.37;;;12.50;;
70320;SDS011;61127;55.826;37.046;2022-08-26T06:22:43;17.90;;;13.07;;
70320;SDS011;61127;55.826;37.046;2022-08-26T06:25:28;19.27;;;13.43;;
70320;SDS011;61127;55.826;37.046;2022-08-26T06:30:32;19.03;;;12.27;;
70320;SDS011;61127;55.826;37.046;2022-08-26T06:33:02;18.05;;;12.27;;
70320;SDS011;61127;55.826;37.046;2022-08-26T06:35:28;22.92;;;12.95;;
70320;SDS011;61127;55.826;37.046;2022-08-26T06:40:24;19.60;;;12.53;;
70320;SDS011;61127;55.826;37.046;2022-08-26T06:42:49;18.63;;;11.82;;
70320;SDS011;61127;55.826;37.046;2022-08-26T06:45:16;19.00;;;12.15;;
70320;SDS011;61127;55.826;37.046;2022-08-26T06:47:41;18.67;;;12.13;;
70320;SDS011;61127;55.826;37.046;2022-08-26T06:50:07;16.10;;;11.38;;
70320;SDS011;61127;55.826;37.046;2022-08-26T06:52:33;18.33;;;11.48;;
70320;SDS011;61127;55.826;37.046;2022-08-26T06:54:59;18.60;;;11.93;;
70320;SDS011;61127;55.826;37.046;2022-08-26T06:57:26;16.83;;;11.10;;
70320;SDS011;61127;55.826;37.046;2022-08-26T06:59:53;14.52;;;11.27;;
70320;SDS011;61127;55.826;37.046;2022-08-26T07:02:18;17.37;;;11.37;;
70320;SDS011;61127;55.826;37.046;2022-08-26T07:04:44;19.85;;;11.13;;
70320;SDS011;61127;55.826;37.046;2022-08-26T07:07:14;16.65;;;11.52;;
70320;SDS011;61127;55.826;37.046;2022-08-26T07:09:40;18.40;;;11.40;;
70320;SDS011;61127;55.826;37.046;2022-08-26T07:12:06;19.60;;;11.50;;
70320;SDS011;61127;55.826;37.046;2022-08-26T07:14:32;20.23;;;10.93;;
70320;SDS011;61127;55.826;37.046;2022-08-26T07:16:58;16.88;;;10.82;;
70320;SDS011;61127;55.826;37.046;2022-08-26T07:19:25;13.43;;;10.45;;
70320;SDS011;61127;55.826;37.046;2022-08-26T07:21:51;20.02;;;10.15;;
70320;SDS011;61127;55.826;37.046;2022-08-26T07:24:17;13.43;;;10.43;;
70320;SDS011;61127;55.826;37.046;2022-08-26T07:26:44;15.75;;;10.20;;
70320;SDS011;61127;55.826;37.046;2022-08-26T07:29:09;18.58;;;9.90;;
70320;SDS011;61127;55.826;37.046;2022-08-26T07:31:37;14.37;;;9.80;;
70320;SDS011;61127;55.826;37.046;2022-08-26T07:34:03;14.07;;;9.23;;
70320;SDS011;61127;55.826;37.046;2022-08-26T07:36:28;12.18;;;9.15;;
70320;SDS011;61127;55.826;37.046;2022-08-26T07:38:54;11.67;;;8.90;;
70320;SDS011;61127;55.826;37.046;2022-08-26T07:41:22;11.80;;;9.30;;
70320;SDS011;61127;55.826;37.046;2022-08-26T07:43:48;14.32;;;9.13;;
70320;SDS011;61127;55.826;37.046;2022-08-26T07:46:14;12.18;;;9.45;;
70320;SDS011;61127;55.826;37.046;2022-08-26T07:48:48;15.07;;;9.25;;
70320;SDS011;61127;55.826;37.046;2022-08-26T07:51:15;17.83;;;9.60;;
70320;SDS011;61127;55.826;37.046;2022-08-26T07:53:42;11.95;;;9.00;;
70320;SDS011;61127;55.826;37.046;2022-08-26T07:56:08;13.18;;;9.27;;
70320;SDS011;61127;55.826;37.046;2022-08-26T07:58:33;12.23;;;8.63;;
70320;SDS011;61127;55.826;37.046;2022-08-26T08:00:59;12.95;;;9.38;;
70320;SDS011;61127;55.826;37.046;2022-08-26T08:03:26;12.60;;;8.68;;
70320;SDS011;61127;55.826;37.046;2022-08-26T08:05:51;12.00;;;8.60;;
70320;SDS011;61127;55.826;37.046;2022-08-26T08:08:18;13.38;;;8.90;;
70320;SDS011;61127;55.826;37.046;2022-08-26T08:10:44;12.98;;;9.23;;
70320;SDS011;61127;55.826;37.046;2022-08-26T08:13:10;14.87;;;9.50;;
70320;SDS011;61127;55.826;37.046;2022-08-26T08:15:36;12.07;;;9.38;;
70320;SDS011;61127;55.826;37.046;2022-08-26T08:18:03;14.37;;;10.10;;
70320;SDS011;61127;55.826;37.046;2022-08-26T08:20:31;16.73;;;9.93;;
70320;SDS011;61127;55.826;37.046;2022-08-26T08:22:57;14.45;;;9.82;;
70320;SDS011;61127;55.826;37.046;2022-08-26T08:25:23;13.35;;;9.23;;
70320;SDS011;61127;55.826;37.046;2022-08-26T08:27:49;11.13;;;8.90;;
70320;SDS011;61127;55.826;37.046;2022-08-26T08:30:16;12.38;;;8.68;;
70320;SDS011;61127;55.826;37.046;2022-08-26T08:32:42;13.55;;;8.40;;
70320;SDS011;61127;55.826;37.046;2022-08-26T08:35:08;11.23;;;7.80;;
70320;SDS011;61127;55.826;37.046;2022-08-26T08:37:36;11.38;;;7.53;;
70320;SDS011;61127;55.826;37.046;2022-08-26T08:40:03;11.75;;;7.82;;
70320;SDS011;61127;55.826;37.046;2022-08-26T08:42:45;16.85;;;8.40;;
70320;SDS011;61127;55.826;37.046;2022-08-26T08:45:14;13.93;;;7.77;;
70320;SDS011;61127;55.826;37.046;2022-08-26T08:47:43;13.48;;;7.72;;
70320;SDS011;61127;55.826;37.046;2022-08-26T08:50:16;11.43;;;7.97;;
70320;SDS011;61127;55.826;37.046;2022-08-26T08:52:45;13.60;;;7.65;;
70320;SDS011;61127;55.826;37.046;2022-08-26T08:55:13;10.90;;;7.95;;
70320;SDS011;61127;55.826;37.046;2022-08-26T09:00:08;9.88;;;7.88;;
70320;SDS011;61127;55.826;37.046;2022-08-26T09:02:48;10.63;;;7.55;;
70320;SDS011;61127;55.826;37.046;2022-08-26T09:05:22;9.40;;;7.80;;
70320;SDS011;61127;55.826;37.046;2022-08-26T09:08:05;10.30;;;7.90;;
70320;SDS011;61127;55.826;37.046;2022-08-26T09:10:34;11.60;;;7.90;;
70320;SDS011;61127;55.826;37.046;2022-08-26T09:13:01;11.98;;;8.07;;
70320;SDS011;61127;55.826;37.046;2022-08-26T09:16:31;10.23;;;8.32;;
70320;SDS011;61127;55.826;37.046;2022-08-26T09:21:07;11.25;;;8.10;;
70320;SDS011;61127;55.826;37.046;2022-08-26T09:23:34;10.63;;;8.40;;
70320;SDS011;61127;55.826;37.046;2022-08-26T09:26:02;8.98;;;7.97;;
70320;SDS011;61127;55.826;37.046;2022-08-26T09:28:29;11.73;;;8.10;;
70320;SDS011;61127;55.826;37.046;2022-08-26T09:31:12;10.93;;;8.02;;
70320;SDS011;61127;55.826;37.046;2022-08-26T09:33:39;10.18;;;8.25;;
70320;SDS011;61127;55.826;37.046;2022-08-26T09:38:51;9.32;;;7.90;;
70320;SDS011;61127;55.826;37.046;2022-08-26T09:46:30;10.82;;;7.72;;
70320;SDS011;61127;55.826;37.046;2022-08-26T09:48:56;10.80;;;7.83;;
70320;SDS011;61127;55.826;37.046;2022-08-26T09:51:42;11.35;;;8.15;;
70320;SDS011;61127;55.826;37.046;2022-08-26T09:54:08;9.98;;;8.88;;
70320;SDS011;61127;55.826;37.046;2022-08-26T09:56:48;11.00;;;7.90;;
70320;SDS011;61127;55.826;37.046;2022-08-26T09:59:16;11.90;;;8.40;;
70320;SDS011;61127;55.826;37.046;2022-08-26T10:01:53;16.67;;;8.20;;
70320;SDS011;61127;55.826;37.046;2022-08-26T10:04:20;13.13;;;8.93;;
70320;SDS011;61127;55.826;37.046;2022-08-26T10:09:21;10.70;;;7.22;;
70320;SDS011;61127;55.826;37.046;2022-08-26T10:11:54;11.27;;;7.33;;
70320;SDS011;61127;55.826;37.046;2022-08-26T10:14:23;9.80;;;7.72;;
70320;SDS011;61127;55.826;37.046;2022-08-26T10:16:57;8.88;;;7.65;;
70320;SDS011;61127;55.826;37.046;2022-08-26T10:19:27;10.38;;;8.23;;
70320;SDS011;61127;55.826;37.046;2022-08-26T10:24:22;12.10;;;8.23;;
70320;SDS011;61127;55.826;37.046;2022-08-26T10:29:16;11.02;;;8.63;;
70320;SDS011;61127;55.826;37.046;2022-08-26T10:34:13;11.20;;;8.40;;
70320;SDS011;61127;55.826;37.046;2022-08-26T10:36:41;11.32;;;8.10;;
70320;SDS011;61127;55.826;37.046;2022-08-26T10:42:45;13.43;;;8.57;;
70320;SDS011;61127;55.826;37.046;2022-08-26T10:45:09;9.23;;;8.32;;
70320;SDS011;61127;55.826;37.046;2022-08-26T10:47:42;9.85;;;8.85;;
70320;SDS011;61127;55.826;37.046;2022-08-26T10:50:09;13.00;;;7.75;;
70320;SDS011;61127;55.826;37.046;2022-08-26T10:52:49;15.75;;;7.45;;
70320;SDS011;61127;55.826;37.046;2022-08-26T11:00:14;10.05;;;7.18;;
70320;SDS011;61127;55.826;37.046;2022-08-26T11:03:02;11.73;;;7.25;;
70320;SDS011;61127;55.826;37.046;2022-08-26T11:05:30;11.48;;;6.90;;
70320;SDS011;61127;55.826;37.046;2022-08-26T11:08:41;11.07;;;6.73;;
70320;SDS011;61127;55.826;37.046;2022-08-26T11:13:08;9.90;;;7.28;;
70320;SDS011;61127;55.826;37.046;2022-08-26T11:18:04;9.63;;;6.70;;
70320;SDS011;61127;55.826;37.046;2022-08-26T11:20:33;11.43;;;7.90;;
70320;SDS011;61127;55.826;37.046;2022-08-26T11:28:42;10.80;;;7.00;;
70320;SDS011;61127;55.826;37.046;2022-08-26T11:31:10;10.13;;;7.03;;
70320;SDS011;61127;55.826;37.046;2022-08-26T11:36:08;11.80;;;7.00;;
70320;SDS011;61127;55.826;37.046;2022-08-26T11:38:34;10.38;;;7.28;;
70320;SDS011;61127;55.826;37.046;2022-08-26T11:41:07;15.23;;;7.70;;
70320;SDS011;61127;55.826;37.046;2022-08-26T11:43:33;10.77;;;7.07;;
70320;SDS011;61127;55.826;37.046;2022-08-26T11:48:28;11.80;;;7.88;;
70320;SDS011;61127;55.826;37.046;2022-08-26T11:51:09;13.03;;;8.50;;
70320;SDS011;61127;55.826;37.046;2022-08-26T11:53:36;10.18;;;7.85;;
70320;SDS011;61127;55.826;37.046;2022-08-26T11:56:04;12.95;;;8.00;;
70320;SDS011;61127;55.826;37.046;2022-08-26T11:58:30;11.90;;;8.13;;
70320;SDS011;61127;55.826;37.046;2022-08-26T12:00:57;9.90;;;8.00;;
70320;SDS011;61127;55.826;37.046;2022-08-26T12:03:46;14.02;;;8.90;;
70320;SDS011;61127;55.826;37.046;2022-08-26T12:06:11;11.55;;;8.52;;
70320;SDS011;61127;55.826;37.046;2022-08-26T12:08:38;9.73;;;8.13;;
70320;SDS011;61127;55.826;37.046;2022-08-26T12:11:08;12.98;;;8.88;;
70320;SDS011;61127;55.826;37.046;2022-08-26T12:13:34;12.00;;;8.90;;
70320;SDS011;61127;55.826;37.046;2022-08-26T12:16:01;10.68;;;8.35;;
70320;SDS011;61127;55.826;37.046;2022-08-26T12:18:32;10.77;;;9.25;;
70320;SDS011;61127;55.826;37.046;2022-08-26T12:20:59;10.23;;;8.38;;
70320;SDS011;61127;55.826;37.046;2022-08-26T12:25:53;13.63;;;8.52;;
70320;SDS011;61127;55.826;37.046;2022-08-26T12:28:27;8.30;;;7.22;;
70320;SDS011;61127;55.826;37.046;2022-08-26T12:30:58;9.40;;;7.65;;
70320;SDS011;61127;55.826;37.046;2022-08-26T12:33:24;10.75;;;7.82;;
70320;SDS011;61127;55.826;37.046;2022-08-26T12:35:50;10.70;;;8.00;;
70320;SDS011;61127;55.826;37.046;2022-08-26T12:38:16;12.63;;;7.88;;
70320;SDS011;61127;55.826;37.046;2022-08-26T12:40:42;9.65;;;7.57;;
70320;SDS011;61127;55.826;37.046;2022-08-26T12:43:09;11.75;;;7.18;;
70320;SDS011;61127;55.826;37.046;2022-08-26T12:48:04;9.38;;;7.40;;
70320;SDS011;61127;55.826;37.046;2022-08-26T12:50:35;9.25;;;7.22;;
70320;SDS011;61127;55.826;37.046;2022-08-26T12:53:14;10.38;;;8.43;;
70320;SDS011;61127;55.826;37.046;2022-08-26T12:55:55;10.23;;;7.90;;
70320;SDS011;61127;55.826;37.046;2022-08-26T13:06:10;11.30;;;7.68;;
70320;SDS011;61127;55.826;37.046;2022-08-26T13:08:38;8.88;;;7.65;;
70320;SDS011;61127;55.826;37.046;2022-08-26T13:11:21;10.13;;;7.70;;
70320;SDS011;61127;55.826;37.046;2022-08-26T13:13:48;8.55;;;7.20;;
70320;SDS011;61127;55.826;37.046;2022-08-26T13:16:16;8.75;;;6.95;;
70320;SDS011;61127;55.826;37.046;2022-08-26T13:18:49;8.02;;;7.20;;
70320;SDS011;61127;55.826;37.046;2022-08-26T13:21:20;11.90;;;7.05;;
70320;SDS011;61127;55.826;37.046;2022-08-26T13:23:47;9.68;;;7.40;;
70320;SDS011;61127;55.826;37.046;2022-08-26T13:26:13;9.07;;;7.53;;
70320;SDS011;61127;55.826;37.046;2022-08-26T13:28:38;10.27;;;7.93;;
70320;SDS011;61127;55.826;37.046;2022-08-26T13:31:05;8.07;;;7.28;;
70320;SDS011;61127;55.826;37.046;2022-08-26T13:33:31;9.70;;;7.27;;
70320;SDS011;61127;55.826;37.046;2022-08-26T13:35:57;8.35;;;7.45;;
70320;SDS011;61127;55.826;37.046;2022-08-26T13:38:23;8.38;;;7.20;;
70320;SDS011;61127;55.826;37.046;2022-08-26T13:40:49;10.77;;;7.05;;
70320;SDS011;61127;55.826;37.046;2022-08-26T13:43:15;11.20;;;7.80;;
70320;SDS011;61127;55.826;37.046;2022-08-26T13:45:41;9.63;;;7.40;;
70320;SDS011;61127;55.826;37.046;2022-08-26T13:48:06;17.17;;;8.10;;
70320;SDS011;61127;55.826;37.046;2022-08-26T13:50:33;10.30;;;7.30;;
70320;SDS011;61127;55.826;37.046;2022-08-26T13:52:58;13.43;;;7.40;;
70320;SDS011;61127;55.826;37.046;2022-08-26T13:55:24;10.35;;;7.80;;
70320;SDS011;61127;55.826;37.046;2022-08-26T13:57:51;9.80;;;7.45;;
70320;SDS011;61127;55.826;37.046;2022-08-26T14:00:17;13.50;;;7.45;;
70320;SDS011;61127;55.826;37.046;2022-08-26T14:02:43;10.73;;;7.45;;
70320;SDS011;61127;55.826;37.046;2022-08-26T14:05:08;10.03;;;6.90;;
70320;SDS011;61127;55.826;37.046;2022-08-26T14:07:34;9.43;;;6.82;;
70320;SDS011;61127;55.826;37.046;2022-08-26T14:10:01;7.95;;;6.68;;
70320;SDS011;61127;55.826;37.046;2022-08-26T14:12:27;8.73;;;6.80;;
70320;SDS011;61127;55.826;37.046;2022-08-26T14:14:53;12.83;;;6.60;;
70320;SDS011;61127;55.826;37.046;2022-08-26T14:17:20;10.43;;;7.13;;
70320;SDS011;61127;55.826;37.046;2022-08-26T14:19:47;8.38;;;5.88;;
70320;SDS011;61127;55.826;37.046;2022-08-26T14:22:14;11.10;;;6.80;;
70320;SDS011;61127;55.826;37.046;2022-08-26T14:24:41;11.60;;;6.38;;
70320;SDS011;61127;55.826;37.046;2022-08-26T14:27:09;10.02;;;6.10;;
70320;SDS011;61127;55.826;37.046;2022-08-26T14:29:34;8.88;;;5.95;;
70320;SDS011;61127;55.826;37.046;2022-08-26T14:32:01;8.70;;;6.80;;
70320;SDS011;61127;55.826;37.046;2022-08-26T14:34:31;14.98;;;6.88;;
70320;SDS011;61127;55.826;37.046;2022-08-26T14:36:57;13.40;;;6.38;;
70320;SDS011;61127;55.826;37.046;2022-08-26T14:39:22;9.30;;;6.33;;
70320;SDS011;61127;55.826;37.046;2022-08-26T14:41:53;9.73;;;6.50;;
70320;SDS011;61127;55.826;37.046;2022-08-26T14:44:19;9.57;;;6.53;;
70320;SDS011;61127;55.826;37.046;2022-08-26T14:46:47;11.13;;;6.70;;
70320;SDS011;61127;55.826;37.046;2022-08-26T14:49:14;14.02;;;6.82;;
70320;SDS011;61127;55.826;37.046;2022-08-26T14:51:40;10.40;;;7.30;;
70320;SDS011;61127;55.826;37.046;2022-08-26T14:54:06;14.77;;;7.40;;
70320;SDS011;61127;55.826;37.046;2022-08-26T14:59:05;13.02;;;6.70;;
70320;SDS011;61127;55.826;37.046;2022-08-26T15:01:31;12.85;;;7.15;;
70320;SDS011;61127;55.826;37.046;2022-08-26T15:03:58;14.83;;;7.17;;
70320;SDS011;61127;55.826;37.046;2022-08-26T15:06:24;17.02;;;7.00;;
70320;SDS011;61127;55.826;37.046;2022-08-26T15:08:50;12.18;;;7.07;;
70320;SDS011;61127;55.826;37.046;2022-08-26T15:11:15;13.50;;;7.00;;
70320;SDS011;61127;55.826;37.046;2022-08-26T15:13:43;11.88;;;7.05;;
70320;SDS011;61127;55.826;37.046;2022-08-26T15:16:09;13.07;;;6.97;;
70320;SDS011;61127;55.826;37.046;2022-08-26T15:18:36;14.20;;;7.30;;
70320;SDS011;61127;55.826;37.046;2022-08-26T15:21:02;13.65;;;6.95;;
70320;SDS011;61127;55.826;37.046;2022-08-26T15:23:28;13.70;;;7.20;;
70320;SDS011;61127;55.826;37.046;2022-08-26T15:25:54;11.85;;;7.43;;
70320;SDS011;61127;55.826;37.046;2022-08-26T15:28:20;16.35;;;7.32;;
70320;SDS011;61127;55.826;37.046;2022-08-26T15:30:45;11.20;;;7.23;;
70320;SDS011;61127;55.826;37.046;2022-08-26T15:33:11;17.80;;;7.70;;